Skip Navigation Links Skip Navigation Links

Current Weather

Boryspil, Kiev, Ukraine

For information only: do not use for flight planning or navigation.
Latest weather
Observation time Monday, December 16, 2019 10:30 AM EET
Local time Monday, December 16, 2019 11:02 AM EET
Flight conditions Visual Meteorological Conditions
Winds
Wind direction West (260°)
Wind speed 9 mph
Visibility 6.2 mi.
Sky condition
Ceiling unlimited
Sky clear
Temperature 45°F
Dewpoint 36°F
Altimeter 30.03 in.Hg
Derived measurements
Relative humidity 70%
Wind chill 40°F
Density altitude -437 ft.
Remarks
Ceiling and visibility OK.
No significant changes expected in the next two hours.
METAR UKKK 160830Z 26004MPS CAVOK 07/02 Q1017 R26/190060 NOSIG

Settings

Location code

InnerDrive.Weather 4.0.6770.0 Release CLR 4.0.30319.42000
Copyright ©2018 Inner Drive Technology. All rights reserved. Portions Copyright ©1986-2018 David Braverman.

Find weather

Site navigation


Skip Navigation Links

Place info

Page info

PayPal - The safer, easier way to pay online!

Return home.

Copyright ©2019 Inner Drive Technology. Purveyors of fine, hand-crafted computer software. Page printed 2019-12-16T09:02:33 UTC.